Time;durP1;ratioP1;P1;durP2;ratioP2;P2;SDS_P1;SDS_P2;PMS_P1;PMS_P2;Temp;Humidity;BMP_temperature;BMP_pressure;BME280_temperature;BME280_humidity;BME280_pressure;Samples;Min_cycle;Max_cycle;Signal;HPM_P1;HPM_P2
2022/07/06 00:04:55;;;;;;;8.00;7.20;;;;;;;15.65;77.88;99661.03;445704;1277;142819;-59
2022/07/06 00:15:00;;;;;;;7.40;6.70;;;;;;;15.58;78.21;99657.80;444730;1278;142480;-59
2022/07/06 00:25:08;;;;;;;7.90;7.20;;;;;;;15.48;78.38;99652.46;445603;1277;142726;-59
2022/07/06 00:35:13;;;;;;;7.00;6.40;;;;;;;15.38;78.82;99661.21;444867;1276;143083;-59
2022/07/06 00:45:20;;;;;;;9.10;8.40;;;;;;;15.34;79.13;99650.39;445605;1277;142766;-59
2022/07/06 00:55:28;;;;;;;8.50;7.80;;;;;;;15.26;79.10;99636.41;445597;1277;143430;-59
2022/07/06 01:05:34;;;;;;;8.00;7.30;;;;;;;15.20;79.35;99628.68;444938;1277;142969;-59
2022/07/06 01:15:39;;;;;;;8.00;7.20;;;;;;;15.15;79.57;99625.16;444494;1279;142657;-59
2022/07/06 01:25:45;;;;;;;8.60;7.70;;;;;;;15.10;79.68;99625.19;444504;1281;142484;-57
2022/07/06 01:35:51;;;;;;;9.20;8.30;;;;;;;15.05;79.96;99618.20;443566;1280;143826;-58
2022/07/06 01:45:57;;;;;;;8.30;7.50;;;;;;;15.06;80.14;99612.16;445381;1278;198507;-61
2022/07/06 01:56:03;;;;;;;8.10;7.30;;;;;;;15.07;80.18;99613.31;445364;1279;142747;-56
2022/07/06 02:06:10;;;;;;;7.60;6.80;;;;;;;15.01;80.02;99605.83;444971;1278;212332;-58
2022/07/06 02:16:16;;;;;;;7.00;6.30;;;;;;;14.89;80.41;99610.34;444916;1279;143209;-59
2022/07/06 02:26:22;;;;;;;10.20;7.10;;;;;;;14.69;80.33;99618.96;444633;1278;144170;-58
2022/07/06 02:36:28;;;;;;;10.50;7.90;;;;;;;14.50;80.65;99615.34;445380;1279;143259;-59
2022/07/06 02:46:33;;;;;;;7.40;6.70;;;;;;;14.35;80.81;99616.92;445404;1278;143479;-58
2022/07/06 02:56:39;;;;;;;7.60;6.80;;;;;;;14.26;80.94;99608.85;444639;1279;143263;-58
2022/07/06 03:06:45;;;;;;;14.90;8.00;;;;;;;14.14;80.72;99605.52;445392;1278;142594;-58
2022/07/06 03:16:50;;;;;;;11.60;9.20;;;;;;;14.10;80.97;99599.17;445343;1278;141789;-59
2022/07/06 03:26:56;;;;;;;18.20;10.10;;;;;;;14.15;81.74;99591.75;444580;1278;146719;-62
2022/07/06 03:37:02;;;;;;;14.60;9.00;;;;;;;14.43;82.19;99585.14;445277;1278;143250;-59
2022/07/06 03:47:08;;;;;;;11.90;9.20;;;;;;;15.37;81.77;99578.90;442365;1279;143600;-59
2022/07/06 03:57:14;;;;;;;9.40;6.20;;;;;;;16.17;80.06;99588.94;445315;1278;143325;-59
2022/07/06 04:07:20;;;;;;;8.00;5.50;;;;;;;17.82;79.01;99592.93;444852;1279;142014;-58
2022/07/06 04:27:49;;;;;;;3.90;2.80;;;;;;;25.87;60.69;99587.37;445443;1277;142378;-58
2022/07/06 04:37:55;;;;;;;7.40;2.10;;;;;;;28.55;55.25;99577.02;445181;1279;143529;-58
2022/07/06 04:48:01;;;;;;;6.20;2.40;;;;;;;30.85;49.19;99585.70;444780;1277;142355;-58
2022/07/06 04:58:06;;;;;;;3.70;1.50;;;;;;;32.88;43.57;99583.91;445504;1277;142345;-58
2022/07/06 05:08:11;;;;;;;;;;;;;;;33.84;39.21;99596.66;444700;1277;143029;-59
2022/07/06 05:18:17;;;;;;;4.00;1.80;;;;;;;35.59;36.52;99598.98;445017;1279;128427;-58
2022/07/06 05:28:22;;;;;;;3.10;1.30;;;;;;;38.21;33.31;99602.71;445595;1277;141737;-59
2022/07/06 05:38:29;;;;;;;3.30;0.80;;;;;;;39.19;29.58;99611.11;444727;1277;143574;-59
2022/07/06 05:58:58;;;;;;;2.90;0.90;;;;;;;40.81;25.74;99637.82;445735;1277;141463;-58
2022/07/06 06:09:04;;;;;;;3.80;1.10;;;;;;;41.81;23.83;99643.96;445216;1277;141866;-59
2022/07/06 06:19:09;;;;;;;3.60;0.80;;;;;;;42.82;22.11;99646.89;445184;1279;141322;-58
2022/07/06 06:29:16;;;;;;;3.30;1.30;;;;;;;43.36;21.47;99643.32;444266;1279;144286;-59
2022/07/06 06:39:21;;;;;;;2.00;0.90;;;;;;;43.69;20.49;99637.02;445157;1279;142272;-58
2022/07/06 06:49:27;;;;;;;4.60;1.10;;;;;;;44.22;19.41;99645.11;445205;1279;141484;-57
2022/07/06 06:59:33;;;;;;;1.00;1.00;;;;;;;44.25;19.15;99652.16;443347;1280;142475;-59
2022/07/06 07:09:39;;;;;;;1.90;1.40;;;;;;;45.42;18.55;99642.16;445163;1278;142325;-60
2022/07/06 07:19:44;;;;;;;2.10;1.90;;;;;;;46.10;17.93;99641.23;445253;1278;141280;-59
2022/07/06 07:29:50;;;;;;;3.50;2.20;;;;;;;46.70;17.02;99641.09;444494;1278;142352;-59
2022/07/06 07:39:54;;;;;;;;;;;;;;;47.24;16.22;99638.27;444400;1280;142027;-60
2022/07/06 07:50:00;;;;;;;7.30;1.80;;;;;;;46.77;16.14;99643.55;445513;1277;132228;-59
2022/07/06 08:00:08;;;;;;;2.70;0.80;;;;;;;41.25;17.77;99638.44;444985;1277;141426;-59
2022/07/06 08:10:14;;;;;;;6.10;0.90;;;;;;;32.66;22.89;99644.63;445459;1277;141005;-58
2022/07/06 08:20:19;;;;;;;1.60;1.10;;;;;;;29.46;26.27;99657.51;444963;1277;142966;-59
2022/07/06 08:30:26;;;;;;;4.70;1.10;;;;;;;27.68;28.30;99665.54;445603;1277;141984;-58
2022/07/06 08:40:35;;;;;;;1.00;0.60;;;;;;;26.87;30.58;99660.19;445734;1277;141923;-58
2022/07/06 08:50:42;;;;;;;1.10;0.70;;;;;;;26.60;31.31;99663.30;444926;1277;142757;-59
2022/07/06 09:00:48;;;;;;;3.20;0.80;;;;;;;26.14;31.72;99667.56;445629;1277;142700;-57
2022/07/06 09:10:53;;;;;;;7.50;0.90;;;;;;;26.83;31.69;99668.90;445312;1277;142120;-59
2022/07/06 09:20:59;;;;;;;0.60;0.50;;;;;;;26.12;30.59;99672.36;444531;1277;142708;-59
2022/07/06 09:31:11;;;;;;;2.20;0.60;;;;;;;25.08;31.54;99680.91;445264;1277;153529;-59
2022/07/06 09:41:33;;;;;;;2.30;1.10;;;;;;;24.55;33.05;99684.23;444278;1278;143417;-59
2022/07/06 09:51:40;;;;;;;8.10;1.70;;;;;;;24.47;33.01;99684.59;445298;1278;143682;-59
2022/07/06 10:01:46;;;;;;;5.30;2.60;;;;;;;23.90;33.91;99687.52;444729;1279;286250;-58
2022/07/06 10:11:53;;;;;;;3.00;1.80;;;;;;;23.56;35.49;99689.20;444227;1277;141918;-58
2022/07/06 10:22:02;;;;;;;5.70;1.40;;;;;;;23.61;36.02;99681.99;445693;1277;141334;-58
2022/07/06 10:32:09;;;;;;;4.80;1.90;;;;;;;23.92;35.94;99687.09;444893;1277;152777;-58
2022/07/06 10:42:41;;;;;;;1.80;0.60;;;;;;;24.70;35.35;99681.60;445302;1278;141754;-58
2022/07/06 10:52:58;;;;;;;2.60;0.90;;;;;;;25.65;34.90;99682.30;445664;1277;142740;-58
2022/07/06 11:03:34;;;;;;;3.90;1.50;;;;;;;25.82;34.44;99674.73;445172;1277;142105;-59
2022/07/06 11:13:50;;;;;;;2.10;1.10;;;;;;;25.76;34.34;99673.69;445343;1278;142301;-58
2022/07/06 11:23:56;;;;;;;1.30;1.00;;;;;;;25.62;34.31;99683.89;444060;1279;142357;-59
2022/07/06 11:34:02;;;;;;;2.10;0.80;;;;;;;25.38;34.82;99676.65;444808;1279;141764;-58
2022/07/06 11:44:08;;;;;;;3.00;0.50;;;;;;;25.86;34.97;99669.95;444036;1279;143052;-58
2022/07/06 11:54:16;;;;;;;6.30;0.80;;;;;;;26.18;34.28;99663.48;444811;1279;143440;-58
2022/07/06 12:04:26;;;;;;;3.40;0.80;;;;;;;26.05;33.37;99677.70;445407;1279;143438;-58
2022/07/06 12:14:33;;;;;;;1.20;0.90;;;;;;;26.19;33.45;99681.48;444210;1279;142264;-59
2022/07/06 12:24:44;;;;;;;2.90;0.60;;;;;;;26.32;33.06;99688.66;445633;1277;141179;-58
2022/07/06 12:35:04;;;;;;;2.40;0.60;;;;;;;26.39;33.02;99680.27;445696;1277;145354;-59
2022/07/06 12:45:11;;;;;;;1.50;1.00;;;;;;;25.97;32.54;99683.27;445420;1278;144290;-59
2022/07/06 12:55:16;;;;;;;1.80;0.50;;;;;;;25.41;32.53;99682.52;445613;1277;142249;-58
2022/07/06 13:05:27;;;;;;;4.70;1.40;;;;;;;24.40;35.24;99710.76;445006;1277;144608;-59
2022/07/06 13:15:33;;;;;;;6.40;2.10;;;;;;;22.57;40.38;99737.83;444396;1279;142875;-59
2022/07/06 13:25:38;;;;;;;3.40;1.20;;;;;;;21.73;42.81;99751.84;445428;1278;143107;-58
2022/07/06 13:35:44;;;;;;;2.10;0.90;;;;;;;21.78;43.36;99763.61;444630;1277;143802;-58
2022/07/06 13:45:50;;;;;;;2.20;1.10;;;;;;;21.57;43.37;99766.44;445372;1278;143038;-58
2022/07/06 13:55:56;;;;;;;3.90;1.20;;;;;;;21.14;43.60;99769.27;445386;1278;142332;-58
2022/07/06 14:06:02;;;;;;;3.20;0.70;;;;;;;20.58;43.30;99771.58;443554;1280;141818;-58
2022/07/06 14:16:09;;;;;;;2.20;1.30;;;;;;;20.16;43.37;99768.75;445335;1277;141835;-62
2022/07/06 14:26:15;;;;;;;2.30;0.80;;;;;;;19.79;43.55;99764.02;444833;1278;144100;-58
2022/07/06 14:36:21;;;;;;;2.10;0.60;;;;;;;19.38;44.28;99757.27;445543;1277;142149;-60
2022/07/06 14:46:27;;;;;;;3.00;0.70;;;;;;;18.86;45.34;99752.33;445453;1278;142880;-61
2022/07/06 14:56:33;;;;;;;6.00;1.70;;;;;;;18.65;46.41;99748.93;444736;1278;198868;-60
2022/07/06 15:06:39;;;;;;;3.80;1.20;;;;;;;18.56;47.57;99752.50;445515;1278;141543;-60
2022/07/06 15:16:59;;;;;;;3.60;0.90;;;;;;;18.80;47.98;99734.04;445274;1279;142248;-60
2022/07/06 15:27:06;;;;;;;2.80;0.90;;;;;;;19.51;47.01;99719.33;444317;1278;141691;-60
2022/07/06 15:37:12;;;;;;;2.40;1.10;;;;;;;19.66;46.39;99704.94;444365;1279;141811;-59
2022/07/06 15:47:18;;;;;;;1.90;0.80;;;;;;;19.43;46.26;99702.97;444610;1277;142464;-59
2022/07/06 15:57:25;;;;;;;3.80;0.70;;;;;;;19.34;45.97;99697.67;445510;1277;143428;-62
2022/07/06 16:07:31;;;;;;;3.30;0.90;;;;;;;19.26;45.43;99691.50;445261;1278;141872;-60
2022/07/06 16:17:57;;;;;;;0.80;0.70;;;;;;;19.26;44.85;99687.80;444533;1278;188930;-59
2022/07/06 16:28:03;;;;;;;1.90;0.90;;;;;;;19.27;44.35;99686.36;445350;1278;143272;-60
2022/07/06 16:38:09;;;;;;;4.50;0.70;;;;;;;19.38;43.92;99686.89;443703;1278;142311;-58
2022/07/06 16:48:15;;;;;;;1.10;0.90;;;;;;;19.43;43.50;99682.33;445307;1278;141391;-60
2022/07/06 16:58:20;;;;;;;2.30;1.00;;;;;;;19.46;43.68;99678.66;445056;1277;141881;-60
2022/07/06 17:08:27;;;;;;;2.10;1.70;;;;;;;19.39;43.78;99671.77;444154;1278;145454;-61
2022/07/06 17:18:33;;;;;;;0.70;0.50;;;;;;;19.27;44.25;99673.09;439544;1277;141613;-60
2022/07/06 17:28:39;;;;;;;2.10;0.90;;;;;;;19.16;44.55;99672.42;436118;1277;141865;-57
2022/07/06 17:38:45;;;;;;;0.70;0.60;;;;;;;18.91;45.12;99673.03;444194;1277;142084;-61
2022/07/06 17:48:52;;;;;;;3.90;1.30;;;;;;;18.65;45.71;99672.00;445443;1277;143175;-60
2022/07/06 17:58:58;;;;;;;8.50;1.10;;;;;;;18.53;46.82;99675.09;444977;1277;141926;-60
2022/07/06 18:09:06;;;;;;;4.00;1.00;;;;;;;18.33;47.76;99678.20;442495;1277;142420;-60
2022/07/06 18:19:12;;;;;;;6.30;1.30;;;;;;;18.19;48.89;99678.09;436988;1279;141848;-58
2022/07/06 18:29:18;;;;;;;4.20;1.20;;;;;;;18.17;50.04;99687.47;442859;1278;142757;-59
2022/07/06 18:39:24;;;;;;;3.10;1.60;;;;;;;18.09;50.65;99690.59;445084;1278;142776;-59
2022/07/06 18:49:30;;;;;;;4.20;1.60;;;;;;;17.83;51.45;99692.23;444823;1279;142233;-60
2022/07/06 18:59:36;;;;;;;1.20;1.10;;;;;;;17.67;52.40;99698.31;444238;1279;143244;-61
2022/07/06 19:09:48;;;;;;;2.10;1.00;;;;;;;17.45;53.21;99711.77;444879;1278;142341;-60
2022/07/06 19:19:54;;;;;;;8.10;1.50;;;;;;;17.24;54.03;99720.25;444447;1279;142184;-60
2022/07/06 19:29:59;;;;;;;4.00;0.90;;;;;;;17.08;55.06;99731.88;443926;1279;142952;-60
2022/07/06 19:40:07;;;;;;;6.90;2.20;;;;;;;16.92;54.87;99735.77;444959;1277;154052;-60
2022/07/06 19:50:13;;;;;;;3.10;1.70;;;;;;;16.94;54.00;99746.91;443826;1279;144093;-60
2022/07/06 20:00:19;;;;;;;8.00;1.70;;;;;;;16.99;53.49;99754.41;444961;1277;141484;-60
2022/07/06 20:10:25;;;;;;;2.80;1.30;;;;;;;17.00;52.65;99756.65;445170;1277;142209;-60
2022/07/06 20:20:31;;;;;;;3.50;1.40;;;;;;;16.94;52.10;99750.80;444293;1277;142693;-61
2022/07/06 20:30:38;;;;;;;2.70;1.20;;;;;;;16.81;51.70;99754.95;429267;1277;142479;-60
2022/07/06 20:40:43;;;;;;;1.80;1.10;;;;;;;16.69;51.26;99756.99;444810;1277;141656;-60
2022/07/06 20:50:49;;;;;;;3.90;1.20;;;;;;;16.64;50.43;99761.66;443920;1279;141902;-61
2022/07/06 21:00:55;;;;;;;1.70;1.60;;;;;;;16.60;49.91;99757.64;444042;1280;142124;-61
2022/07/06 21:11:01;;;;;;;4.60;1.00;;;;;;;16.48;49.79;99751.38;444954;1277;142202;-61
2022/07/06 21:21:07;;;;;;;1.50;0.70;;;;;;;16.37;49.94;99749.52;444772;1279;142847;-60
2022/07/06 21:31:13;;;;;;;2.50;1.00;;;;;;;16.23;49.93;99755.45;445114;1277;142484;-60
2022/07/06 21:41:19;;;;;;;2.30;0.80;;;;;;;16.02;50.23;99756.17;444199;1279;142636;-61
2022/07/06 21:51:24;;;;;;;3.40;1.20;;;;;;;15.77;50.71;99759.81;445205;1278;141382;-61
2022/07/06 22:01:30;;;;;;;1.90;1.20;;;;;;;15.55;50.88;99766.31;445013;1277;251993;-61
2022/07/06 22:11:36;;;;;;;2.20;2.00;;;;;;;15.32;51.22;99768.89;444491;1277;142990;-61
2022/07/06 22:21:48;;;;;;;2.50;1.50;;;;;;;15.11;51.66;99761.77;445520;1277;142568;-61
2022/07/06 22:31:54;;;;;;;3.20;1.20;;;;;;;14.97;52.20;99769.08;445516;1277;141268;-60
2022/07/06 22:42:00;;;;;;;1.90;1.10;;;;;;;14.82;52.60;99764.59;444720;1277;142036;-60
2022/07/06 22:52:07;;;;;;;2.60;1.40;;;;;;;14.71;53.08;99768.77;445539;1277;151638;-61
2022/07/06 23:02:13;;;;;;;2.90;1.90;;;;;;;14.67;54.25;99765.52;444771;1277;144981;-60
2022/07/06 23:12:19;;;;;;;1.70;1.20;;;;;;;14.54;55.30;99763.88;445669;1277;141751;-60
2022/07/06 23:22:30;;;;;;;2.80;1.30;;;;;;;14.45;55.99;99765.63;445774;1277;141285;-60
2022/07/06 23:32:35;;;;;;;4.40;1.40;;;;;;;14.39;56.73;99764.02;444611;1277;143077;-61
2022/07/06 23:42:41;;;;;;;2.70;1.10;;;;;;;14.35;57.23;99761.84;445701;1277;141974;-59
2022/07/06 23:52:47;;;;;;;2.20;0.80;;;;;;;14.27;58.11;99759.09;445671;1277;143491;-59
